Terminal Aerodrome Forecast
Issued by NWS

Home | Current Version | Previous Version | Text Only | Print | Product List | Glossary On
Versions: 1 2 3 4 5 6 7 8 9 10 11 12 13 14 15 16 17 18 19 20 21 22 23 24 25 26
000
FTUS45 KGJT 060557 AAA
TAFDRO
TAF AMD
KDRO 060557Z 0606/0706 29010G20KT P6SM BKN250
     FM060800 00000KT P6SM BKN250
     FM061200 VRB04KT P6SM BKN250
     FM061900 20005KT P6SM VCSH SCT090 BKN150
      TEMPO 0620/0624 VRB15G30KT P6SM BKN080
     FM070400 05005KT P6SM BKN150=

USA.gov is the U.S. government's official web portal to all federal, state and local government web resources and services.